createdAt,value
2023-05-11T00:01:37.853Z,92772.41
2023-05-11T00:04:42.154Z,92765.03
2023-05-11T00:07:46.039Z,92765.16
2023-05-11T00:10:49.639Z,92763.91
2023-05-11T00:13:53.258Z,92756.91
2023-05-11T00:16:56.966Z,92737.91
2023-05-11T00:20:01.061Z,92741.81
2023-05-11T00:23:04.901Z,92747.13
2023-05-11T00:26:07.826Z,92751.97
2023-05-11T00:29:10.870Z,92752.41
2023-05-11T00:32:14.831Z,92748.13
2023-05-11T00:35:18.656Z,92750.94
2023-05-11T00:38:22.356Z,92756.22
2023-05-11T00:41:25.532Z,92758.91
2023-05-11T00:44:28.428Z,92760.09
2023-05-11T00:47:31.602Z,92763.97
2023-05-11T00:50:37.194Z,92763.63
2023-05-11T00:53:41.453Z,92753.03
2023-05-11T00:56:44.441Z,92752.56
2023-05-11T00:59:48.710Z,92754.81
2023-05-11T01:02:52.112Z,92753.69
2023-05-11T01:06:22.756Z,92748.41
2023-05-11T01:09:50.530Z,92735.06
2023-05-11T01:13:08.081Z,92749.31
2023-05-11T01:16:24.992Z,92737.72
2023-05-11T01:19:34.921Z,92726.44
2023-05-11T01:22:43.734Z,92723.38
2023-05-11T01:26:06.085Z,92714.72
2023-05-11T01:29:40.596Z,92719.72
2023-05-11T01:32:47.267Z,92709.84
2023-05-11T01:35:57.487Z,92716.28
2023-05-11T01:39:09.927Z,92708.38
2023-05-11T01:42:15.993Z,92713.53
2023-05-11T01:45:21.105Z,92699.97
2023-05-11T01:48:26.650Z,92702.56
2023-05-11T01:51:37.699Z,92719.81
2023-05-11T01:54:43.001Z,92701.03
2023-05-11T01:57:47.942Z,92718.56
2023-05-11T02:00:51.551Z,92708.28
2023-05-11T02:03:56.168Z,92705.81
2023-05-11T02:07:02.227Z,92694.34
2023-05-11T02:10:06.438Z,92688.25
2023-05-11T02:13:11.301Z,92695.09
2023-05-11T02:16:17.246Z,92678.44
2023-05-11T02:19:21.905Z,92683.88
2023-05-11T02:22:26.526Z,92679.06
2023-05-11T02:25:30.493Z,92671.91
2023-05-11T02:28:33.621Z,92679.34
2023-05-11T02:31:44.580Z,92677.00
2023-05-11T02:35:01.391Z,92670.41
2023-05-11T02:38:06.202Z,92671.91
2023-05-11T02:41:17.254Z,92661.03
2023-05-11T02:44:21.865Z,92668.53
2023-05-11T02:47:29.898Z,92665.13
2023-05-11T02:50:38.487Z,92661.41
2023-05-11T02:53:43.889Z,92660.25
2023-05-11T02:56:47.555Z,92657.25
2023-05-11T02:59:51.185Z,92652.00
2023-05-11T03:02:55.221Z,92656.38
2023-05-11T03:05:59.406Z,92658.78
2023-05-11T03:09:04.544Z,92640.66
2023-05-11T03:12:11.412Z,92634.69
2023-05-11T03:15:16.251Z,92626.72
2023-05-11T03:18:23.383Z,92633.38
2023-05-11T03:21:27.622Z,92628.75
2023-05-11T03:24:32.623Z,92638.72
2023-05-11T03:27:37.524Z,92613.06
2023-05-11T03:30:46.132Z,92621.63
2023-05-11T03:33:49.334Z,92626.28
2023-05-11T03:36:54.051Z,92621.22
2023-05-11T03:39:59.965Z,92611.94
2023-05-11T03:43:12.195Z,92599.19
2023-05-11T03:46:19.082Z,92589.97
2023-05-11T03:49:23.641Z,92589.91
2023-05-11T03:52:28.200Z,92593.00
2023-05-11T03:55:33.500Z,92594.91
2023-05-11T03:58:41.727Z,92604.03
2023-05-11T04:01:45.620Z,92587.16
2023-05-11T04:04:50.203Z,92597.13
2023-05-11T04:07:53.610Z,92577.31
2023-05-11T04:10:56.648Z,92583.38
2023-05-11T04:13:59.950Z,92586.28
2023-05-11T04:17:03.254Z,92570.22
2023-05-11T04:20:08.356Z,92579.16
2023-05-11T04:23:11.256Z,92567.03
2023-05-11T04:26:14.638Z,92569.66
2023-05-11T04:29:17.642Z,92549.22
2023-05-11T04:32:21.831Z,92550.84
2023-05-11T04:35:25.712Z,92554.94
2023-05-11T04:38:30.047Z,92595.88
2023-05-11T04:41:33.591Z,92584.81
2023-05-11T04:44:37.676Z,92592.19
2023-05-11T04:47:41.967Z,92594.03
2023-05-11T04:50:46.208Z,92591.88
2023-05-11T04:53:52.290Z,92595.69
2023-05-11T04:56:55.672Z,92579.69
2023-05-11T04:59:58.846Z,92591.00
2023-05-11T05:03:02.995Z,92603.63
2023-05-11T05:06:06.499Z,92614.19
2023-05-11T05:09:10.860Z,92597.31
2023-05-11T05:12:13.943Z,92600.75
2023-05-11T05:15:16.968Z,92608.00
2023-05-11T05:18:21.359Z,92594.28
2023-05-11T05:21:25.911Z,92587.91
2023-05-11T05:24:29.578Z,92604.34
2023-05-11T05:27:35.057Z,92609.38
2023-05-11T05:30:42.728Z,92599.91
2023-05-11T05:33:46.992Z,92607.88
2023-05-11T05:36:50.797Z,92602.69
2023-05-11T05:39:54.131Z,92600.00
2023-05-11T05:42:57.273Z,92596.03
2023-05-11T05:46:01.402Z,92581.69
2023-05-11T05:49:05.462Z,92589.34
2023-05-11T05:52:08.499Z,92588.38
2023-05-11T05:55:11.621Z,92578.69
2023-05-11T05:58:16.235Z,92566.88
2023-05-11T06:01:19.554Z,92567.91
2023-05-11T06:04:22.975Z,92563.44
2023-05-11T06:07:26.763Z,92559.81
2023-05-11T06:10:29.693Z,92572.66
2023-05-11T06:13:33.134Z,92560.53
2023-05-11T06:16:36.830Z,92562.56
2023-05-11T06:19:41.505Z,92577.63
2023-05-11T06:22:44.987Z,92568.16
2023-05-11T06:25:49.711Z,92557.41
2023-05-11T06:28:53.778Z,92559.44
2023-05-11T06:31:57.100Z,92561.22
2023-05-11T06:35:00.896Z,92548.06
2023-05-11T06:38:04.622Z,92547.53
2023-05-11T06:41:11.807Z,92536.78
2023-05-11T06:44:15.259Z,92538.22
2023-05-11T06:47:20.641Z,92545.53
2023-05-11T06:50:25.784Z,92552.63
2023-05-11T06:53:30.172Z,92553.47
2023-05-11T06:56:34.659Z,92556.72
2023-05-11T06:59:38.497Z,92561.59
2023-05-11T07:02:41.475Z,92559.09
2023-05-11T07:05:44.568Z,92547.31
2023-05-11T07:08:47.567Z,92545.41
2023-05-11T07:11:52.331Z,92541.13
2023-05-11T07:14:55.385Z,92533.13
2023-05-11T07:17:58.547Z,92540.03
2023-05-11T07:21:01.535Z,92543.72
2023-05-11T07:24:05.010Z,92542.75
2023-05-11T07:27:07.987Z,92550.03
2023-05-11T07:30:12.205Z,92547.75
2023-05-11T07:33:15.400Z,92559.16
2023-05-11T07:36:19.334Z,92547.31
2023-05-11T07:39:23.040Z,92555.25
2023-05-11T07:42:26.801Z,92565.75
2023-05-11T07:45:29.694Z,92549.78
2023-05-11T07:48:33.551Z,92556.97
2023-05-11T07:51:36.622Z,92553.97
2023-05-11T07:54:40.965Z,92561.69
2023-05-11T07:57:44.763Z,92554.53
2023-05-11T08:00:48.754Z,92554.34
2023-05-11T08:03:52.436Z,92550.16
2023-05-11T08:06:56.601Z,92559.84
2023-05-11T08:09:59.794Z,92562.56
2023-05-11T08:13:04.452Z,92571.25
2023-05-11T08:16:08.266Z,92573.75
2023-05-11T08:19:12.309Z,92574.03
2023-05-11T08:22:15.570Z,92575.28
2023-05-11T08:25:18.995Z,92562.84
2023-05-11T08:28:23.151Z,92567.75
2023-05-11T08:31:26.215Z,92570.06
2023-05-11T08:34:29.732Z,92570.50
2023-05-11T08:37:33.615Z,92577.47
2023-05-11T08:40:37.638Z,92591.06
2023-05-11T08:43:41.927Z,92594.91
2023-05-11T08:47:01.388Z,92595.56
2023-05-11T08:50:13.772Z,92603.28
2023-05-11T08:53:16.709Z,92598.59
2023-05-11T08:56:22.840Z,92601.31
2023-05-11T08:59:29.483Z,92616.91
2023-05-11T09:02:33.442Z,92625.25
2023-05-11T09:05:38.796Z,92606.19
2023-05-11T09:08:42.852Z,92605.69
2023-05-11T09:11:48.036Z,92623.69
2023-05-11T09:14:53.188Z,92617.50
2023-05-11T09:17:57.345Z,92632.19
2023-05-11T09:21:03.249Z,92629.56
2023-05-11T09:24:07.120Z,92630.59
2023-05-11T09:27:10.985Z,92633.88
2023-05-11T09:33:26.719Z,92637.38
2023-05-11T09:36:30.690Z,92648.09
2023-05-11T09:39:42.166Z,92662.72
2023-05-11T09:42:59.619Z,92654.25
2023-05-11T09:46:08.126Z,92666.25
2023-05-11T09:49:12.637Z,92667.75
2023-05-11T09:52:18.475Z,92665.47
2023-05-11T09:55:21.412Z,92664.06
2023-05-11T09:58:24.616Z,92664.44
2023-05-11T10:01:35.745Z,92672.72
2023-05-11T10:04:38.729Z,92677.91
2023-05-11T10:07:42.474Z,92679.25
2023-05-11T10:10:46.326Z,92673.13
2023-05-11T10:13:50.955Z,92680.44
2023-05-11T10:16:54.524Z,92683.97
2023-05-11T10:19:59.312Z,92685.75
2023-05-11T10:23:03.966Z,92676.38
2023-05-11T10:26:08.286Z,92693.97
2023-05-11T10:29:12.825Z,92705.28
2023-05-11T10:32:18.511Z,92707.75
2023-05-11T10:35:22.918Z,92716.41
2023-05-11T10:38:26.735Z,92716.00
2023-05-11T10:42:24.841Z,92728.97
2023-05-11T10:45:38.871Z,92732.41
2023-05-11T10:49:22.996Z,92748.88
2023-05-11T10:52:32.821Z,92742.38
2023-05-11T10:55:58.658Z,92753.03
2023-05-11T10:59:17.365Z,92755.56
2023-05-11T11:02:20.866Z,92777.59
2023-05-11T11:05:39.669Z,92784.72
2023-05-11T11:09:04.999Z,92799.13
2023-05-11T11:12:11.231Z,92793.00
2023-05-11T11:15:14.212Z,92795.47
2023-05-11T11:18:26.715Z,92819.34
2023-05-11T11:21:43.460Z,92809.66
2023-05-11T11:24:48.266Z,92836.00
2023-05-11T11:27:52.998Z,92825.03
2023-05-11T11:31:26.964Z,92834.75
2023-05-11T11:34:30.749Z,92847.50
2023-05-11T11:38:03.344Z,92849.06
2023-05-11T11:41:09.973Z,92860.06
2023-05-11T11:44:23.668Z,92867.41
2023-05-11T11:47:27.420Z,92864.31
2023-05-11T11:50:31.635Z,92864.41
2023-05-11T11:53:45.242Z,92857.56
2023-05-11T11:56:48.293Z,92856.50
2023-05-11T11:59:51.648Z,92858.69
2023-05-11T12:02:55.684Z,92863.50
2023-05-11T12:06:02.794Z,92875.22
2023-05-11T12:09:07.189Z,92871.19
2023-05-11T12:12:10.826Z,92878.72
2023-05-11T12:15:28.961Z,92886.19
2023-05-11T12:18:32.940Z,92878.13
2023-05-11T12:21:36.593Z,92897.72
2023-05-11T12:24:40.990Z,92907.81
2023-05-11T12:28:02.815Z,92911.84
2023-05-11T12:31:06.828Z,92913.78
2023-05-11T12:34:20.651Z,92917.81
2023-05-11T12:37:23.688Z,92924.00
2023-05-11T12:40:27.677Z,92944.22
2023-05-11T12:43:31.127Z,92950.28
2023-05-11T12:46:35.117Z,92955.75
2023-05-11T12:49:38.874Z,92954.41
2023-05-11T12:52:41.975Z,92966.50
2023-05-11T12:55:45.693Z,92969.16
2023-05-11T12:58:48.637Z,92963.78
2023-05-11T13:01:51.734Z,92967.19
2023-05-11T13:04:54.770Z,92972.59
2023-05-11T13:08:03.525Z,92976.72
2023-05-11T13:11:23.248Z,92979.41
2023-05-11T13:14:27.327Z,92975.41
2023-05-11T13:17:36.112Z,92988.81
2023-05-11T13:20:40.284Z,92995.53
2023-05-11T13:23:50.217Z,92998.91
2023-05-11T13:26:55.742Z,92989.53
2023-05-11T13:29:59.493Z,93003.59
2023-05-11T13:33:03.319Z,93006.34
2023-05-11T13:36:07.441Z,93013.72
2023-05-11T13:39:11.764Z,93010.34
2023-05-11T13:42:15.778Z,93007.66
2023-05-11T13:45:19.867Z,93013.00
2023-05-11T13:48:23.737Z,93017.72
2023-05-11T13:51:28.584Z,93016.41
2023-05-11T13:54:32.860Z,93010.34
2023-05-11T13:57:36.923Z,93019.75
2023-05-11T14:00:40.802Z,93019.72
2023-05-11T14:03:45.170Z,93020.34
2023-05-11T14:06:48.790Z,93022.38
2023-05-11T14:09:52.671Z,93016.31
2023-05-11T14:12:56.295Z,93010.97
2023-05-11T14:16:00.466Z,93008.94
2023-05-11T14:19:04.311Z,93015.56
2023-05-11T14:22:08.647Z,93016.28
2023-05-11T14:25:12.438Z,93020.97
2023-05-11T14:28:16.648Z,93016.88
2023-05-11T14:31:19.643Z,93019.53
2023-05-11T14:34:23.780Z,93017.53
2023-05-11T14:37:27.619Z,93016.88
2023-05-11T14:40:32.247Z,93015.41
2023-05-11T14:43:36.015Z,93024.06
2023-05-11T14:46:40.149Z,93027.38
2023-05-11T14:49:43.984Z,93024.72
2023-05-11T14:52:48.076Z,93025.94
2023-05-11T14:55:51.746Z,93030.56
2023-05-11T14:58:56.293Z,93023.13
2023-05-11T15:02:00.752Z,93019.72
2023-05-11T15:05:04.844Z,93025.75
2023-05-11T15:08:15.532Z,93026.97
2023-05-11T15:11:29.110Z,93028.31
2023-05-11T15:14:32.021Z,93025.56
2023-05-11T15:17:36.189Z,93034.28
2023-05-11T15:20:39.903Z,93040.34
2023-05-11T15:23:43.720Z,93041.59
2023-05-11T15:26:47.466Z,93037.53
2023-05-11T15:29:51.469Z,93044.97
2023-05-11T15:32:54.930Z,93050.94
2023-05-11T15:35:58.734Z,93054.25
2023-05-11T15:39:03.306Z,93062.38
2023-05-11T15:42:10.452Z,93063.75
2023-05-11T15:45:13.466Z,93058.34
2023-05-11T15:48:17.588Z,93062.34
2023-05-11T15:51:21.307Z,93062.34
2023-05-11T15:54:25.594Z,93067.56
2023-05-11T15:57:29.309Z,93073.03
2023-05-11T16:00:33.735Z,93068.38
2023-05-11T16:03:37.371Z,93071.13
2023-05-11T16:06:41.232Z,93073.81
2023-05-11T16:09:44.311Z,93071.19
2023-05-11T16:12:47.808Z,93071.13
2023-05-11T16:15:51.241Z,93075.06
2023-05-11T16:18:55.540Z,93075.53
2023-05-11T16:21:58.676Z,93088.75
2023-05-11T16:25:02.584Z,93085.41
2023-05-11T16:28:06.695Z,93083.88
2023-05-11T16:31:10.460Z,93091.66
2023-05-11T16:34:13.579Z,93089.03
2023-05-11T16:37:17.379Z,93090.28
2023-05-11T16:40:22.125Z,93087.84
2023-05-11T16:43:25.670Z,93091.75
2023-05-11T16:46:29.489Z,93091.75
2023-05-11T16:49:33.689Z,93096.41
2023-05-11T16:52:37.507Z,93100.97
2023-05-11T16:55:40.787Z,93098.84
2023-05-11T16:58:46.541Z,93090.78
2023-05-11T17:01:50.491Z,93089.38
2023-05-11T17:04:53.608Z,93091.84
2023-05-11T17:07:56.665Z,93089.81
2023-05-11T17:11:00.683Z,93090.84
2023-05-11T17:14:04.306Z,93090.72
2023-05-11T17:17:08.713Z,93093.94
2023-05-11T17:20:12.974Z,93095.22
2023-05-11T17:23:16.710Z,93092.47
2023-05-11T17:26:19.777Z,93089.03
2023-05-11T17:29:24.358Z,93082.97
2023-05-11T17:32:27.717Z,93096.81
2023-05-11T17:35:31.809Z,93092.06
2023-05-11T17:38:36.110Z,93095.94
2023-05-11T17:41:40.290Z,93081.53
2023-05-11T17:44:44.726Z,93088.97
2023-05-11T17:47:50.691Z,93077.03
2023-05-11T17:50:54.117Z,93080.78
2023-05-11T17:53:57.448Z,93083.22
2023-05-11T17:57:01.126Z,93079.22
2023-05-11T18:00:06.774Z,93081.91
2023-05-11T18:03:09.845Z,93085.31
2023-05-11T18:06:12.922Z,93086.94
2023-05-11T18:09:16.269Z,93080.66
2023-05-11T18:12:20.149Z,93091.03
2023-05-11T18:15:24.090Z,93090.97
2023-05-11T18:18:27.969Z,93092.13
2023-05-11T18:21:32.348Z,93095.34
2023-05-11T18:24:35.981Z,93087.22
2023-05-11T18:27:40.401Z,93087.31
2023-05-11T18:30:44.062Z,93092.13
2023-05-11T18:33:47.404Z,93097.88
2023-05-11T18:36:50.559Z,93086.56
2023-05-11T18:39:53.705Z,93096.28
2023-05-11T18:42:57.395Z,93097.44
2023-05-11T18:46:00.547Z,93111.84
2023-05-11T18:49:04.602Z,93104.22
2023-05-11T18:52:07.762Z,93111.88
2023-05-11T18:55:11.683Z,93112.25
2023-05-11T18:58:14.706Z,93108.66
2023-05-11T19:01:18.617Z,93120.03
2023-05-11T19:04:22.562Z,93109.13
2023-05-11T19:07:26.500Z,93115.63
2023-05-11T19:10:30.252Z,93123.00
2023-05-11T19:13:34.292Z,93119.56
2023-05-11T19:16:37.638Z,93115.47
2023-05-11T19:19:41.614Z,93111.91
2023-05-11T19:22:45.248Z,93123.44
2023-05-11T19:25:48.538Z,93126.38
2023-05-11T19:28:52.353Z,93127.44
2023-05-11T19:31:55.454Z,93128.47
2023-05-11T19:34:58.827Z,93132.38
2023-05-11T19:38:02.365Z,93137.53
2023-05-11T19:41:05.965Z,93145.81
2023-05-11T19:44:09.607Z,93154.47
2023-05-11T19:47:12.643Z,93149.50
2023-05-11T19:50:16.649Z,93145.06
2023-05-11T19:53:20.196Z,93145.81
2023-05-11T19:56:23.109Z,93153.28
2023-05-11T19:59:33.314Z,93139.94
2023-05-11T20:02:37.102Z,93144.75
2023-05-11T20:05:41.364Z,93146.88
2023-05-11T20:08:47.179Z,93148.34
2023-05-11T20:11:52.764Z,93148.16
2023-05-11T20:14:56.597Z,93149.88
2023-05-11T20:18:00.044Z,93155.75
2023-05-11T20:21:03.909Z,93150.16
2023-05-11T20:24:07.042Z,93159.25
2023-05-11T20:27:11.622Z,93161.97
2023-05-11T20:30:15.162Z,93167.22
2023-05-11T20:36:25.188Z,93164.75
2023-05-11T20:39:28.948Z,93165.88
2023-05-11T20:42:32.113Z,93178.81
2023-05-11T20:45:36.407Z,93168.19
2023-05-11T20:48:41.063Z,93175.31
2023-05-11T20:51:45.262Z,93176.66
2023-05-11T20:54:49.586Z,93180.56
2023-05-11T20:57:52.724Z,93191.56
2023-05-11T21:00:56.450Z,93185.03
2023-05-11T21:04:01.181Z,93182.47
2023-05-11T21:07:04.757Z,93183.50
2023-05-11T21:10:08.445Z,93186.19
2023-05-11T21:13:12.005Z,93183.34
2023-05-11T21:16:15.898Z,93187.09
2023-05-11T21:19:19.198Z,93176.94
2023-05-11T21:22:22.653Z,93182.38
2023-05-11T21:25:25.997Z,93180.94
2023-05-11T21:28:30.906Z,93184.53
2023-05-11T21:31:33.984Z,93172.50
2023-05-11T21:34:37.389Z,93174.84
2023-05-11T21:37:40.348Z,93186.19
2023-05-11T21:40:44.327Z,93187.25
2023-05-11T21:43:47.291Z,93183.28
2023-05-11T21:46:51.557Z,93189.50
2023-05-11T21:49:54.951Z,93183.19
2023-05-11T21:52:58.881Z,93182.19
2023-05-11T21:56:02.187Z,93179.31
2023-05-11T21:59:05.554Z,93184.34
2023-05-11T22:02:08.720Z,93184.91
2023-05-11T22:05:13.247Z,93192.75
2023-05-11T22:08:16.450Z,93183.66
2023-05-11T22:11:23.578Z,93185.84
2023-05-11T22:14:26.645Z,93194.31
2023-05-11T22:17:30.022Z,93189.69
2023-05-11T22:20:33.771Z,93200.06
2023-05-11T22:23:37.506Z,93206.47
2023-05-11T22:26:40.854Z,93208.38
2023-05-11T22:29:44.050Z,93204.44
2023-05-11T22:32:47.477Z,93208.53
2023-05-11T22:35:51.522Z,93204.91
2023-05-11T22:38:55.061Z,93213.97
2023-05-11T22:41:58.221Z,93212.59
2023-05-11T22:45:02.237Z,93211.53
2023-05-11T22:48:05.797Z,93209.63
2023-05-11T22:51:09.241Z,93204.19
2023-05-11T22:54:13.795Z,93205.88
2023-05-11T22:57:18.109Z,93190.84
2023-05-11T23:00:22.413Z,93207.59
2023-05-11T23:03:30.001Z,93209.84
2023-05-11T23:06:33.295Z,93212.78
2023-05-11T23:09:37.662Z,93206.16
2023-05-11T23:12:40.666Z,93202.03
2023-05-11T23:15:44.845Z,93203.03
2023-05-11T23:18:48.601Z,93196.56
2023-05-11T23:21:51.756Z,93200.69
2023-05-11T23:24:57.012Z,93203.09
2023-05-11T23:28:01.131Z,93191.34
2023-05-11T23:31:04.402Z,93187.66
2023-05-11T23:34:08.402Z,93202.31
2023-05-11T23:37:12.477Z,93192.97
2023-05-11T23:40:15.811Z,93196.50
2023-05-11T23:43:19.974Z,93195.88
2023-05-11T23:46:23.565Z,93188.72
2023-05-11T23:49:27.622Z,93199.22
2023-05-11T23:52:31.215Z,93186.94
2023-05-11T23:55:34.548Z,93197.16
2023-05-11T23:58:37.931Z,93181.84
